Time;durP1;ratioP1;P1;durP2;ratioP2;P2;SDS_P1;SDS_P2;PMS_P1;PMS_P2;Temp;Humidity;BMP_temperature;BMP_pressure;BME280_temperature;BME280_humidity;BME280_pressure;Samples;Min_cycle;Max_cycle;Signal;HPM_P1;HPM_P2
2021/05/09 00:01:29;;;;;;;6.30;3.83;;;10.00;99.90;;;;;;5093866;28;20035;-69
2021/05/09 00:03:56;;;;;;;4.82;3.88;;;10.00;99.90;;;;;;5093562;28;20036;-69
2021/05/09 00:06:22;;;;;;;6.43;3.92;;;10.00;99.90;;;;;;5092066;28;20020;-69
2021/05/09 00:08:48;;;;;;;4.80;3.67;;;10.00;99.90;;;;;;5093741;28;20073;-69
2021/05/09 00:11:14;;;;;;;8.73;4.05;;;10.20;99.90;;;;;;5093483;28;20103;-69
2021/05/09 00:13:40;;;;;;;6.35;3.22;;;10.40;99.90;;;;;;5093483;28;20020;-69
2021/05/09 00:16:05;;;;;;;5.50;3.55;;;10.50;99.90;;;;;;5093749;28;20026;-69
2021/05/09 00:18:31;;;;;;;6.50;3.80;;;10.60;99.90;;;;;;5093149;28;20024;-69
2021/05/09 00:20:57;;;;;;;4.53;3.40;;;10.60;99.90;;;;;;5093649;28;20347;-69
2021/05/09 00:23:23;;;;;;;5.47;3.75;;;10.60;99.90;;;;;;5093626;28;20036;-69
2021/05/09 00:25:49;;;;;;;4.60;3.05;;;10.60;99.90;;;;;;5093039;28;20027;-69
2021/05/09 00:28:14;;;;;;;5.72;3.47;;;10.60;99.90;;;;;;5092827;28;20052;-69
2021/05/09 00:30:40;;;;;;;4.25;3.38;;;10.60;99.90;;;;;;5093251;28;20024;-69
2021/05/09 00:33:06;;;;;;;5.63;3.60;;;10.50;99.90;;;;;;5093251;28;20024;-69
2021/05/09 00:35:31;;;;;;;6.43;3.53;;;10.40;99.90;;;;;;5095322;28;20035;-69
2021/05/09 00:37:57;;;;;;;5.68;3.90;;;10.30;99.90;;;;;;5095650;28;20035;-69
2021/05/09 00:40:22;;;;;;;6.55;3.95;;;10.30;99.90;;;;;;5097114;28;20039;-69
2021/05/09 00:42:48;;;;;;;4.65;3.67;;;10.10;99.90;;;;;;5096797;28;20534;-69
2021/05/09 00:45:14;;;;;;;5.43;3.97;;;10.00;99.90;;;;;;5097079;28;20024;-69
2021/05/09 00:47:39;;;;;;;5.72;3.63;;;10.00;99.90;;;;;;5096953;28;20112;-69
2021/05/09 00:50:05;;;;;;;3.90;3.50;;;9.90;99.90;;;;;;5096955;28;20368;-69
2021/05/09 00:52:35;;;;;;;5.25;3.85;;;9.70;99.90;;;;;;5096665;28;20051;-69
2021/05/09 00:55:04;;;;;;;5.30;3.90;;;9.60;99.90;;;;;;5096319;28;20031;-70
2021/05/09 00:57:33;;;;;;;5.88;3.95;;;9.50;99.90;;;;;;5095347;28;20028;-69
2021/05/09 01:00:01;;;;;;;7.18;3.67;;;9.50;99.90;;;;;;5096517;28;20385;-69
2021/05/09 01:02:28;;;;;;;6.43;5.10;;;9.40;99.90;;;;;;5095481;28;20052;-69
2021/05/09 01:04:55;;;;;;;7.22;4.75;;;9.30;99.90;;;;;;5096366;28;20027;-69
2021/05/09 01:07:21;;;;;;;8.45;5.40;;;9.20;99.90;;;;;;5095406;28;20401;-69
2021/05/09 01:09:47;;;;;;;7.47;5.20;;;9.20;99.90;;;;;;5096282;28;20053;-69
2021/05/09 01:12:14;;;;;;;7.88;4.32;;;9.10;99.90;;;;;;5096554;28;20477;-69
2021/05/09 01:14:40;;;;;;;7.40;4.40;;;9.10;99.90;;;;;;5096191;28;20016;-69
2021/05/09 01:17:07;;;;;;;6.32;4.57;;;9.00;99.90;;;;;;5096173;28;20428;-69
2021/05/09 01:19:33;;;;;;;7.05;4.30;;;9.00;99.90;;;;;;5096079;28;20077;-69
2021/05/09 01:21:59;;;;;;;7.65;4.93;;;9.00;99.90;;;;;;5096059;28;20023;-69
2021/05/09 01:24:25;;;;;;;6.72;4.75;;;8.90;99.90;;;;;;5095985;28;20024;-69
2021/05/09 01:26:51;;;;;;;7.85;3.88;;;8.90;99.90;;;;;;5094423;28;20504;-69
2021/05/09 01:29:17;;;;;;;12.18;4.50;;;8.90;99.90;;;;;;5095528;28;20397;-69
2021/05/09 01:31:45;;;;;;;7.40;4.88;;;8.90;99.90;;;;;;5096198;28;20028;-69
2021/05/09 01:34:11;;;;;;;4.72;4.28;;;9.10;99.90;;;;;;5095580;28;20016;-69
2021/05/09 01:36:36;;;;;;;5.25;4.72;;;9.20;99.90;;;;;;5095811;28;20103;-69
2021/05/09 01:39:03;;;;;;;5.50;4.50;;;9.30;99.90;;;;;;5095778;28;20492;-69
2021/05/09 01:41:29;;;;;;;8.07;4.68;;;9.30;99.90;;;;;;5095729;28;20020;-69
2021/05/09 01:43:54;;;;;;;6.38;3.90;;;9.50;99.90;;;;;;5094798;28;20028;-69
2021/05/09 01:46:20;;;;;;;5.68;3.85;;;9.50;99.90;;;;;;5095654;28;20028;-69
2021/05/09 01:48:45;;;;;;;8.30;4.30;;;9.60;99.90;;;;;;5095470;28;20031;-68
2021/05/09 01:51:11;;;;;;;7.30;4.13;;;9.60;99.90;;;;;;5095522;28;20377;-68
2021/05/09 01:53:36;;;;;;;6.03;3.97;;;9.50;99.90;;;;;;5095751;28;20504;-68
2021/05/09 01:56:02;;;;;;;5.72;4.30;;;9.40;99.90;;;;;;5095678;28;20032;-69
2021/05/09 01:58:28;;;;;;;5.75;4.13;;;9.30;99.90;;;;;;5095417;28;20489;-69
2021/05/09 02:00:53;;;;;;;4.95;4.05;;;9.30;99.90;;;;;;5094121;28;20020;-69
2021/05/09 02:03:19;;;;;;;5.65;4.15;;;9.20;99.90;;;;;;5095582;28;20026;-69
2021/05/09 02:05:44;;;;;;;5.55;4.25;;;9.10;99.90;;;;;;5095516;28;20032;-69
2021/05/09 02:08:10;;;;;;;5.65;4.10;;;9.10;99.90;;;;;;5095148;28;20055;-69
2021/05/09 02:10:36;;;;;;;6.55;4.82;;;9.00;99.90;;;;;;5095153;28;20024;-69
2021/05/09 02:13:02;;;;;;;6.60;4.72;;;8.90;99.90;;;;;;5095393;28;20457;-69
2021/05/09 02:15:27;;;;;;;6.10;4.07;;;8.80;99.90;;;;;;5094157;28;20020;-69
2021/05/09 02:17:53;;;;;;;6.85;4.32;;;8.70;99.90;;;;;;5094328;28;20039;-68
2021/05/09 02:20:18;;;;;;;6.75;4.50;;;8.70;99.90;;;;;;5094104;28;20101;-68
2021/05/09 02:22:44;;;;;;;6.25;5.25;;;8.60;99.90;;;;;;5095182;28;20362;-68
2021/05/09 02:25:10;;;;;;;6.15;5.05;;;8.60;99.90;;;;;;5095717;28;20024;-68
2021/05/09 02:27:36;;;;;;;7.53;4.97;;;8.60;99.90;;;;;;5094281;28;20048;-69
2021/05/09 02:30:01;;;;;;;6.80;5.10;;;8.50;99.90;;;;;;5094779;28;20095;-68
2021/05/09 02:32:27;;;;;;;6.40;5.35;;;8.40;99.90;;;;;;5095012;28;20027;-69
2021/05/09 02:34:53;;;;;;;6.70;5.38;;;8.30;99.90;;;;;;5094727;28;20028;-68
2021/05/09 02:37:18;;;;;;;7.90;5.30;;;8.30;99.90;;;;;;5094704;28;20406;-68
2021/05/09 02:39:45;;;;;;;8.75;6.03;;;8.30;99.90;;;;;;5094915;28;20483;-68
2021/05/09 02:42:11;;;;;;;7.55;5.35;;;8.30;99.90;;;;;;5094883;28;20020;-68
2021/05/09 02:44:37;;;;;;;7.00;5.15;;;8.30;99.90;;;;;;5094307;28;20031;-68
2021/05/09 02:47:02;;;;;;;9.15;5.20;;;8.30;99.90;;;;;;5094217;28;20037;-68
2021/05/09 02:49:29;;;;;;;7.35;5.10;;;8.50;99.90;;;;;;5094128;28;20032;-68
2021/05/09 02:51:54;;;;;;;6.13;4.47;;;8.70;99.90;;;;;;5094699;28;20150;-69
2021/05/09 02:54:20;;;;;;;8.02;5.13;;;8.90;99.90;;;;;;5094663;28;20048;-68
2021/05/09 02:56:46;;;;;;;7.63;4.75;;;9.10;99.90;;;;;;5094331;28;20128;-68
2021/05/09 02:59:11;;;;;;;8.23;4.63;;;9.20;99.90;;;;;;5093597;28;20035;-69
2021/05/09 03:01:37;;;;;;;6.00;5.18;;;9.30;99.90;;;;;;5094505;28;20516;-69
2021/05/09 03:04:02;;;;;;;7.93;5.00;;;9.30;99.90;;;;;;5094229;28;20039;-68
2021/05/09 03:06:28;;;;;;;7.07;4.75;;;9.30;99.90;;;;;;5094494;28;20435;-68
2021/05/09 03:08:53;;;;;;;5.63;4.55;;;9.40;99.90;;;;;;5094061;28;20054;-68
2021/05/09 03:11:21;;;;;;;6.00;4.85;;;9.40;99.90;;;;;;5094397;28;20032;-68
2021/05/09 03:13:46;;;;;;;6.32;4.93;;;9.50;99.90;;;;;;5094046;28;20023;-68
2021/05/09 03:16:12;;;;;;;9.05;4.53;;;9.60;99.90;;;;;;5094337;28;20028;-68
2021/05/09 03:18:37;;;;;;;6.82;4.40;;;9.60;99.90;;;;;;5094282;28;20466;-68
2021/05/09 03:21:03;;;;;;;5.60;4.75;;;9.60;99.90;;;;;;5094235;28;20156;-68
2021/05/09 03:23:29;;;;;;;8.10;4.55;;;9.60;99.90;;;;;;5094198;28;20024;-68
2021/05/09 03:25:54;;;;;;;5.60;4.50;;;9.80;99.90;;;;;;5094157;28;20024;-69
2021/05/09 03:28:20;;;;;;;7.45;4.60;;;9.70;99.90;;;;;;5093431;28;20132;-69
2021/05/09 03:30:45;;;;;;;6.28;4.30;;;9.70;99.90;;;;;;5094183;28;20020;-69
2021/05/09 03:33:11;;;;;;;6.50;4.60;;;9.70;99.90;;;;;;5094055;28;20537;-69
2021/05/09 03:35:37;;;;;;;4.40;3.83;;;9.70;99.90;;;;;;5093511;28;20474;-68
2021/05/09 03:38:03;;;;;;;5.45;4.50;;;9.70;99.90;;;;;;5094010;28;20466;-68
2021/05/09 03:40:28;;;;;;;6.93;4.18;;;9.70;99.90;;;;;;5093790;28;20020;-68
2021/05/09 03:42:54;;;;;;;5.00;4.22;;;9.70;99.90;;;;;;5094018;28;20032;-68
2021/05/09 03:45:20;;;;;;;8.02;4.40;;;9.60;99.90;;;;;;5092809;28;20028;-68
2021/05/09 03:47:45;;;;;;;5.05;4.55;;;9.60;99.90;;;;;;5093608;28;20110;-68
2021/05/09 03:50:11;;;;;;;5.63;4.28;;;9.70;99.90;;;;;;5093711;28;20025;-68
2021/05/09 03:52:36;;;;;;;6.50;4.40;;;9.70;99.90;;;;;;5093897;28;20028;-68
2021/05/09 03:55:03;;;;;;;5.07;4.57;;;9.70;99.90;;;;;;5094482;28;20024;-68
2021/05/09 03:57:28;;;;;;;5.65;4.40;;;9.70;99.90;;;;;;5093635;28;20115;-68
2021/05/09 03:59:54;;;;;;;7.88;4.45;;;9.70;99.90;;;;;;5093305;28;20133;-68
2021/05/09 04:02:20;;;;;;;7.68;4.47;;;9.80;99.90;;;;;;5093574;28;20069;-68
2021/05/09 04:04:46;;;;;;;6.18;4.30;;;9.80;99.90;;;;;;5093801;28;20020;-68
2021/05/09 04:07:12;;;;;;;5.95;4.40;;;9.80;99.90;;;;;;5093473;28;20027;-69
2021/05/09 04:09:37;;;;;;;7.82;4.63;;;9.80;99.90;;;;;;5092839;28;20030;-68
2021/05/09 04:12:05;;;;;;;7.70;4.68;;;9.80;99.90;;;;;;5097732;28;20081;-68
2021/05/09 04:14:30;;;;;;;5.50;4.10;;;9.90;99.90;;;;;;5097400;28;20020;-68
2021/05/09 04:16:56;;;;;;;6.95;4.15;;;9.90;99.90;;;;;;5097873;28;20107;-68
2021/05/09 04:19:22;;;;;;;7.25;4.70;;;9.90;99.90;;;;;;5097305;28;20032;-69
2021/05/09 04:21:47;;;;;;;5.70;4.55;;;9.90;99.90;;;;;;5097527;28;20056;-69
2021/05/09 04:24:13;;;;;;;6.15;4.78;;;10.00;99.90;;;;;;5097498;28;20483;-69
2021/05/09 04:26:38;;;;;;;5.95;4.25;;;9.90;99.90;;;;;;5097202;28;20073;-69
2021/05/09 04:29:04;;;;;;;6.05;4.30;;;10.00;99.90;;;;;;5096680;28;20393;-69
2021/05/09 04:31:31;;;;;;;6.25;4.60;;;10.10;99.90;;;;;;5097388;28;20025;-69
2021/05/09 04:33:56;;;;;;;6.75;4.65;;;10.20;99.90;;;;;;5097344;28;20016;-69
2021/05/09 04:36:22;;;;;;;8.77;4.80;;;10.20;99.90;;;;;;5097293;28;20064;-69
2021/05/09 04:38:47;;;;;;;6.60;4.55;;;10.50;99.90;;;;;;5097264;28;20020;-67
2021/05/09 04:41:13;;;;;;;6.70;4.15;;;10.80;99.90;;;;;;5096928;28;20034;-68
2021/05/09 04:43:39;;;;;;;4.95;4.05;;;10.90;99.90;;;;;;5096585;28;20070;-69
2021/05/09 04:46:05;;;;;;;5.78;4.20;;;11.20;99.90;;;;;;5097098;28;20028;-69
2021/05/09 04:48:31;;;;;;;5.75;3.85;;;11.30;99.90;;;;;;5096713;28;20032;-69
2021/05/09 04:50:57;;;;;;;6.10;3.75;;;11.60;99.90;;;;;;5096721;28;20051;-69
2021/05/09 04:53:28;;;;;;;3.85;3.20;;;12.00;99.90;;;;;;5096998;28;20469;-69
2021/05/09 04:55:57;;;;;;;5.72;3.72;;;12.40;99.90;;;;;;5095479;28;20103;-69
2021/05/09 04:58:23;;;;;;;5.13;3.50;;;12.70;99.90;;;;;;5096317;28;20024;-69
2021/05/09 05:00:51;;;;;;;4.72;3.90;;;12.80;99.90;;;;;;5096540;28;20024;-69
2021/05/09 05:03:17;;;;;;;5.80;3.83;;;12.80;99.90;;;;;;5096491;28;20036;-69
2021/05/09 05:05:43;;;;;;;5.72;3.72;;;12.90;99.90;;;;;;5096458;28;20035;-69
2021/05/09 05:08:08;;;;;;;4.30;3.35;;;12.90;99.90;;;;;;5096323;28;20020;-69
2021/05/09 05:10:34;;;;;;;4.68;3.70;;;12.80;99.90;;;;;;5096084;28;20028;-69
2021/05/09 05:12:59;;;;;;;4.22;3.17;;;12.80;99.90;;;;;;5096592;28;20517;-69
2021/05/09 05:15:34;;;;;;;4.90;3.60;;;12.90;99.90;;;;;;5096275;28;20024;-69
2021/05/09 05:17:59;;;;;;;4.43;3.33;;;13.10;99.90;;;;;;5096514;28;20028;-69
2021/05/09 05:20:25;;;;;;;4.10;3.58;;;13.40;99.90;;;;;;5095921;28;20130;-69
2021/05/09 05:22:50;;;;;;;6.13;3.00;;;13.80;99.90;;;;;;5095764;28;20039;-69
2021/05/09 05:25:15;;;;;;;4.75;3.40;;;14.20;99.90;;;;;;5096079;28;20041;-69
2021/05/09 05:27:41;;;;;;;5.22;2.85;;;14.90;99.90;;;;;;5095942;28;20607;-69
2021/05/09 05:30:07;;;;;;;3.78;2.72;;;15.30;99.90;;;;;;5096232;28;20024;-69
2021/05/09 05:32:32;;;;;;;3.92;3.03;;;15.60;99.90;;;;;;5095920;28;20035;-68
2021/05/09 05:34:58;;;;;;;2.85;2.65;;;16.30;99.90;;;;;;5095868;28;20043;-69
2021/05/09 05:37:23;;;;;;;3.08;2.63;;;17.20;99.90;;;;;;5096107;28;20480;-69
2021/05/09 05:39:49;;;;;;;4.43;2.50;;;18.40;99.90;;;;;;5094631;28;20032;-70
2021/05/09 05:42:14;;;;;;;7.32;2.67;;;19.30;99.90;;;;;;5095934;28;20024;-70
2021/05/09 05:44:40;;;;;;;3.20;2.50;;;19.80;99.90;;;;;;5095710;28;20043;-70
2021/05/09 05:47:05;;;;;;;6.90;2.40;;;20.90;99.90;;;;;;5095610;28;20488;-70
2021/05/09 05:49:31;;;;;;;2.50;2.30;;;21.50;99.90;;;;;;5095817;28;20459;-70
2021/05/09 05:51:56;;;;;;;5.15;2.22;;;22.30;99.90;;;;;;5095503;28;20027;-70
2021/05/09 05:54:24;;;;;;;5.78;2.63;;;22.60;99.90;;;;;;5095785;28;20028;-70
2021/05/09 05:56:49;;;;;;;3.17;2.20;;;22.30;99.60;;;;;;5095733;28;20021;-70
2021/05/09 05:59:15;;;;;;;2.47;1.90;;;22.90;97.20;;;;;;5095399;28;20080;-70
2021/05/09 06:01:40;;;;;;;4.22;2.20;;;23.20;96.40;;;;;;5096171;28;20031;-70
2021/05/09 06:04:07;;;;;;;1.98;1.85;;;23.20;96.70;;;;;;5095551;28;20097;-70
2021/05/09 06:06:32;;;;;;;3.33;2.20;;;22.30;97.90;;;;;;5095257;28;20390;-70
2021/05/09 06:08:58;;;;;;;2.65;2.13;;;22.20;98.50;;;;;;5095111;28;20027;-70
2021/05/09 06:11:24;;;;;;;3.47;2.22;;;21.30;99.90;;;;;;5095171;28;20032;-70
2021/05/09 06:13:49;;;;;;;2.47;1.98;;;21.00;99.90;;;;;;5095134;28;20024;-70
2021/05/09 06:16:15;;;;;;;4.07;1.80;;;20.90;99.90;;;;;;5095079;28;20393;-70
2021/05/09 06:18:40;;;;;;;2.33;1.95;;;21.10;99.90;;;;;;5095308;28;20108;-70
2021/05/09 06:21:06;;;;;;;2.38;2.00;;;21.70;99.90;;;;;;5095010;28;20052;-70
2021/05/09 06:23:31;;;;;;;3.72;2.08;;;21.60;99.90;;;;;;5094976;28;20016;-70
2021/05/09 06:25:57;;;;;;;3.25;1.80;;;21.60;99.90;;;;;;5095208;28;20050;-70
2021/05/09 06:28:22;;;;;;;2.72;1.48;;;21.80;99.90;;;;;;5094619;28;20096;-70
2021/05/09 06:30:49;;;;;;;2.95;1.83;;;22.50;99.90;;;;;;5095102;28;20031;-71
2021/05/09 06:33:15;;;;;;;2.75;1.42;;;23.50;99.70;;;;;;5094384;28;20073;-71
2021/05/09 06:35:41;;;;;;;2.65;1.83;;;24.00;96.20;;;;;;5094465;28;20053;-71
2021/05/09 06:38:07;;;;;;;2.75;1.50;;;24.80;95.80;;;;;;5094961;28;20031;-71
2021/05/09 06:40:34;;;;;;;2.10;1.90;;;24.70;92.10;;;;;;5094903;28;20031;-71
2021/05/09 06:43:01;;;;;;;2.10;1.77;;;25.80;87.80;;;;;;5094593;28;20024;-71
2021/05/09 06:45:29;;;;;;;3.72;1.60;;;25.40;89.70;;;;;;5094562;28;20479;-71
2021/05/09 06:47:57;;;;;;;1.50;1.40;;;26.00;81.30;;;;;;5094968;28;20355;-71
2021/05/09 06:50:24;;;;;;;2.47;1.65;;;25.60;80.90;;;;;;5094454;28;20032;-71
2021/05/09 06:52:50;;;;;;;1.83;1.50;;;25.90;76.00;;;;;;5094723;28;20024;-71
2021/05/09 06:55:16;;;;;;;1.90;1.40;;;26.00;78.00;;;;;;5094678;28;20358;-71
2021/05/09 06:57:41;;;;;;;1.85;1.63;;;26.60;73.50;;;;;;5094356;28;20024;-71
2021/05/09 07:00:09;;;;;;;2.13;1.52;;;26.70;71.20;;;;;;5094566;28;20032;-71
2021/05/09 07:02:35;;;;;;;2.05;1.45;;;27.00;68.10;;;;;;5094217;28;20024;-71
2021/05/09 07:05:01;;;;;;;1.85;1.55;;;26.40;65.90;;;;;;5094202;28;20110;-71
2021/05/09 07:07:27;;;;;;;2.80;1.50;;;26.20;69.20;;;;;;5094142;28;20479;-71
2021/05/09 07:09:53;;;;;;;2.20;1.67;;;27.00;64.10;;;;;;5094449;28;20012;-72
2021/05/09 07:12:18;;;;;;;2.28;1.60;;;27.10;64.80;;;;;;5094115;28;20085;-71
2021/05/09 07:14:44;;;;;;;1.75;1.45;;;26.90;60.30;;;;;;5094385;28;20051;-71
2021/05/09 07:17:11;;;;;;;2.03;1.70;;;27.40;62.40;;;;;;5094366;28;20021;-71
2021/05/09 07:19:37;;;;;;;1.30;1.20;;;27.10;63.00;;;;;;5094047;28;20111;-71
2021/05/09 07:22:06;;;;;;;1.90;1.33;;;27.20;60.90;;;;;;5092801;28;20058;-71
2021/05/09 07:24:32;;;;;;;4.07;1.55;;;27.60;60.70;;;;;;5094002;28;20024;-71
2021/05/09 07:26:57;;;;;;;1.58;1.35;;;27.80;61.10;;;;;;5094227;28;20445;-71
2021/05/09 07:29:23;;;;;;;2.72;1.33;;;27.50;57.60;;;;;;5093387;28;20056;-71
2021/05/09 07:31:48;;;;;;;2.42;1.27;;;27.30;57.30;;;;;;5094204;28;20024;-71
2021/05/09 07:34:14;;;;;;;3.50;1.20;;;27.10;57.30;;;;;;5093860;28;20465;-71
2021/05/09 07:36:40;;;;;;;3.40;1.50;;;27.30;56.20;;;;;;5094135;28;20028;-71
2021/05/09 07:39:07;;;;;;;1.30;1.20;;;27.80;57.60;;;;;;5094070;28;20123;-71
2021/05/09 07:41:32;;;;;;;1.65;1.45;;;28.40;54.00;;;;;;5094125;28;20038;-70
2021/05/09 07:43:58;;;;;;;1.45;1.20;;;28.10;52.20;;;;;;5094658;28;20028;-71
2021/05/09 07:46:24;;;;;;;2.78;1.30;;;28.30;52.30;;;;;;5098268;28;20028;-71
2021/05/09 07:48:49;;;;;;;3.75;1.33;;;27.80;52.10;;;;;;5097599;28;20126;-71
2021/05/09 07:51:15;;;;;;;2.28;1.20;;;27.20;54.10;;;;;;5098167;28;20024;-71
2021/05/09 07:53:40;;;;;;;2.05;1.20;;;27.70;52.90;;;;;;5098089;28;20020;-71
2021/05/09 07:56:06;;;;;;;3.08;1.65;;;27.70;51.60;;;;;;5097430;28;20024;-71
2021/05/09 07:58:32;;;;;;;2.72;1.40;;;27.20;52.60;;;;;;5097996;28;20039;-71
2021/05/09 08:01:01;;;;;;;1.83;1.20;;;26.50;54.20;;;;;;5097649;28;20028;-71
2021/05/09 08:03:27;;;;;;;1.40;1.10;;;26.40;54.20;;;;;;5097911;28;20020;-71
2021/05/09 08:05:53;;;;;;;2.92;1.45;;;26.30;55.50;;;;;;5097869;28;20046;-70
2021/05/09 08:08:20;;;;;;;2.75;1.50;;;26.10;55.10;;;;;;5097493;28;20028;-71
2021/05/09 08:10:46;;;;;;;3.15;1.42;;;25.50;57.10;;;;;;5096380;28;20019;-71
2021/05/09 08:13:12;;;;;;;1.88;1.27;;;25.80;56.90;;;;;;5096390;28;20020;-71
2021/05/09 08:15:39;;;;;;;1.98;1.30;;;26.10;55.60;;;;;;5097423;28;20020;-71
2021/05/09 08:18:05;;;;;;;2.35;1.45;;;26.30;54.20;;;;;;5097652;28;20043;-71
2021/05/09 08:20:31;;;;;;;1.63;1.15;;;26.90;54.00;;;;;;5097614;28;20063;-71
2021/05/09 08:22:57;;;;;;;2.05;1.30;;;26.40;53.00;;;;;;5095762;28;20111;-71
2021/05/09 08:25:22;;;;;;;1.55;1.30;;;26.50;53.70;;;;;;5097560;28;20108;-71
2021/05/09 08:27:49;;;;;;;2.97;1.30;;;27.70;52.10;;;;;;5097106;28;20098;-71
2021/05/09 08:30:17;;;;;;;2.03;1.35;;;28.10;50.30;;;;;;5097162;28;20381;-73
2021/05/09 08:32:42;;;;;;;2.40;1.42;;;28.40;50.30;;;;;;5097355;28;20390;-71
2021/05/09 08:35:10;;;;;;;1.67;1.20;;;28.70;48.40;;;;;;5097074;28;20099;-71
2021/05/09 08:37:37;;;;;;;2.50;1.10;;;28.70;48.20;;;;;;5097210;28;20024;-71
2021/05/09 08:40:04;;;;;;;2.05;1.30;;;28.10;48.60;;;;;;5095474;28;20112;-71
2021/05/09 08:42:30;;;;;;;1.75;1.45;;;28.30;49.60;;;;;;5097182;28;20020;-71
2021/05/09 08:44:55;;;;;;;1.83;1.30;;;29.20;48.30;;;;;;5096777;28;20033;-71
2021/05/09 08:47:21;;;;;;;1.92;1.35;;;29.80;47.50;;;;;;5097103;28;20020;-71
2021/05/09 08:49:49;;;;;;;3.30;1.45;;;30.30;46.50;;;;;;5096493;28;20504;-71
2021/05/09 08:52:20;;;;;;;2.17;1.50;;;30.30;44.80;;;;;;5096988;28;20020;-71
2021/05/09 08:54:47;;;;;;;4.18;1.70;;;30.00;46.00;;;;;;5096383;28;20157;-71
2021/05/09 08:57:14;;;;;;;1.48;1.17;;;30.00;47.70;;;;;;5095850;28;20073;-71
2021/05/09 08:59:39;;;;;;;2.97;1.20;;;30.50;45.50;;;;;;5096530;28;20063;-71
2021/05/09 09:02:05;;;;;;;1.58;1.20;;;30.40;43.90;;;;;;5096806;28;20105;-72
2021/05/09 09:04:47;;;;;;;2.08;1.30;;;30.30;42.70;;;;;;5096733;28;20024;-71
2021/05/09 09:07:15;;;;;;;1.92;1.73;;;30.30;45.80;;;;;;5096699;28;20029;-71
2021/05/09 09:09:42;;;;;;;1.60;1.30;;;30.00;44.00;;;;;;5096273;28;20488;-71
2021/05/09 09:12:09;;;;;;;1.42;1.30;;;30.00;44.20;;;;;;5095426;28;20430;-71
2021/05/09 09:14:35;;;;;;;1.52;1.42;;;29.80;46.50;;;;;;5096316;28;20055;-71
2021/05/09 09:17:10;;;;;;;3.75;1.40;;;30.00;45.10;;;;;;5095970;28;20044;-71
2021/05/09 09:19:36;;;;;;;3.88;1.30;;;30.90;44.60;;;;;;5096355;28;20524;-72
2021/05/09 09:22:02;;;;;;;2.85;1.48;;;31.10;42.80;;;;;;5096136;28;20030;-71
2021/05/09 09:24:28;;;;;;;1.85;1.50;;;30.40;42.60;;;;;;5096421;28;20102;-71
2021/05/09 09:26:53;;;;;;;5.57;1.77;;;30.10;43.30;;;;;;5096314;28;20040;-71
2021/05/09 09:29:32;;;;;;;1.50;1.15;;;30.30;43.30;;;;;;5094398;28;20044;-71
2021/05/09 09:32:02;;;;;;;1.73;1.58;;;30.30;43.80;;;;;;5095664;28;20024;-71
2021/05/09 09:34:45;;;;;;;2.50;1.60;;;30.30;43.40;;;;;;5096209;28;20358;-71
2021/05/09 09:37:13;;;;;;;2.33;1.40;;;29.90;44.20;;;;;;5096180;28;20403;-71
2021/05/09 09:40:00;;;;;;;3.47;1.70;;;30.30;44.50;;;;;;5095778;28;20024;-71
2021/05/09 09:42:47;;;;;;;3.65;1.48;;;30.80;43.80;;;;;;5095459;28;20103;-71
2021/05/09 09:47:55;;;;;;;5.40;1.60;;;29.40;45.10;;;;;;5071679;28;20349;-70
2021/05/09 09:50:43;;;;;;;1.50;1.30;;;28.40;47.00;;;;;;5071323;28;20514;-70
2021/05/09 09:53:31;;;;;;;2.80;1.60;;;27.60;48.30;;;;;;5070686;28;20466;-70
2021/05/09 09:56:17;;;;;;;1.67;1.58;;;27.20;49.70;;;;;;5070609;28;20051;-71
2021/05/09 10:01:29;;;;;;;3.58;1.75;;;27.50;51.80;;;;;;5112199;27;20401;-70
2021/05/09 10:03:56;;;;;;;1.73;1.58;;;29.50;46.80;;;;;;5111625;28;20028;-71
2021/05/09 10:06:23;;;;;;;5.30;1.80;;;30.20;46.90;;;;;;5110399;28;20119;-71
2021/05/09 10:08:50;;;;;;;2.15;1.70;;;31.40;46.80;;;;;;5111844;28;20051;-71
2021/05/09 10:11:16;;;;;;;2.03;1.83;;;32.00;43.50;;;;;;5111694;28;20338;-71
2021/05/09 10:13:42;;;;;;;2.53;1.67;;;31.90;43.30;;;;;;5111671;28;20024;-71
2021/05/09 10:16:08;;;;;;;3.08;1.73;;;31.80;44.70;;;;;;5111606;28;20049;-71
2021/05/09 10:18:38;;;;;;;2.15;1.40;;;31.90;44.30;;;;;;5111371;28;20031;-71
2021/05/09 10:21:04;;;;;;;2.42;1.52;;;32.00;44.60;;;;;;5111193;28;20114;-71
2021/05/09 10:23:29;;;;;;;3.15;1.63;;;32.30;44.50;;;;;;5111275;28;20051;-71
2021/05/09 10:25:57;;;;;;;2.70;1.70;;;31.80;43.20;;;;;;5111449;28;20065;-71
2021/05/09 10:28:25;;;;;;;4.13;1.70;;;31.20;45.10;;;;;;5111078;28;20020;-71
2021/05/09 10:30:54;;;;;;;3.35;1.85;;;31.10;45.50;;;;;;5111055;28;20034;-71
2021/05/09 10:33:42;;;;;;;2.65;1.63;;;30.10;47.00;;;;;;5111049;28;20063;-71
2021/05/09 10:39:15;;;;;;;3.08;1.70;;;30.60;48.80;;;;;;5110875;27;20443;-70
2021/05/09 10:42:02;;;;;;;2.33;1.83;;;30.10;47.90;;;;;;5111142;28;20433;-70
2021/05/09 10:44:46;;;;;;;3.72;1.80;;;29.40;49.30;;;;;;5111275;28;20073;-70
2021/05/09 10:47:14;;;;;;;1.83;1.60;;;29.40;50.90;;;;;;5110342;28;20469;-70
2021/05/09 10:50:20;;;;;;;3.75;1.73;;;29.80;51.50;;;;;;5111556;28;20366;-70
2021/05/09 10:52:48;;;;;;;3.42;1.85;;;30.30;50.10;;;;;;5111444;28;20102;-70
2021/05/09 10:58:16;;;;;;;3.38;1.80;;;29.00;51.20;;;;;;5112316;27;20112;-71
2021/05/09 11:06:20;;;;;;;3.83;2.08;;;28.20;52.80;;;;;;5112238;27;20584;-70
2021/05/09 11:16:57;;;;;;;2.00;1.80;;;29.50;49.70;;;;;;5112173;27;20116;-70
2021/05/09 11:19:25;;;;;;;3.20;1.88;;;29.80;49.10;;;;;;5110483;28;20077;-70
2021/05/09 11:21:54;;;;;;;3.42;1.80;;;29.40;48.70;;;;;;5111858;28;20046;-70
2021/05/09 11:24:30;;;;;;;3.30;2.00;;;29.40;50.50;;;;;;5110043;28;20026;-70
2021/05/09 11:26:59;;;;;;;2.30;2.10;;;30.10;51.00;;;;;;5111760;28;20019;-70
2021/05/09 11:29:27;;;;;;;1.95;1.80;;;30.30;50.10;;;;;;5111694;28;20524;-70
2021/05/09 11:31:55;;;;;;;3.75;1.95;;;30.10;49.70;;;;;;5111626;28;20028;-70
2021/05/09 11:34:23;;;;;;;2.15;1.70;;;29.60;49.60;;;;;;5111227;28;20020;-70
2021/05/09 11:36:51;;;;;;;4.93;2.38;;;29.40;49.90;;;;;;5111255;28;20019;-70
2021/05/09 11:39:19;;;;;;;2.53;2.00;;;29.40;50.60;;;;;;5110296;28;20441;-70
2021/05/09 11:41:52;;;;;;;4.07;2.22;;;29.10;50.30;;;;;;5110649;28;20458;-70
2021/05/09 11:44:19;;;;;;;3.35;1.85;;;28.70;51.00;;;;;;5111020;28;20465;-70
2021/05/09 11:46:45;;;;;;;3.17;2.13;;;28.60;50.80;;;;;;5111263;28;20023;-70
2021/05/09 11:49:16;;;;;;;2.53;1.95;;;28.60;51.40;;;;;;5110984;28;20028;-70
2021/05/09 11:51:48;;;;;;;5.15;1.88;;;28.60;50.90;;;;;;5111259;28;20027;-70
2021/05/09 11:54:15;;;;;;;4.38;2.28;;;28.70;51.40;;;;;;5110927;28;20012;-70
2021/05/09 11:59:34;;;;;;;2.88;1.70;;;28.70;51.60;;;;;;5112264;27;20352;-71
2021/05/09 12:02:02;;;;;;;3.33;2.03;;;29.00;50.40;;;;;;5111447;28;20077;-71
2021/05/09 12:04:30;;;;;;;2.00;1.80;;;28.90;51.30;;;;;;5110410;28;20408;-71
2021/05/09 12:06:57;;;;;;;2.78;2.00;;;28.80;50.90;;;;;;5110361;28;20593;-71
2021/05/09 12:09:23;;;;;;;3.08;1.95;;;28.40;51.70;;;;;;5111279;28;20384;-71
2021/05/09 12:11:49;;;;;;;4.85;2.22;;;28.40;52.10;;;;;;5111755;28;20023;-71
2021/05/09 12:14:15;;;;;;;5.28;2.20;;;28.50;52.20;;;;;;5111675;28;20461;-70
2021/05/09 12:16:44;;;;;;;4.43;2.53;;;28.70;52.70;;;;;;5111620;28;20491;-70
2021/05/09 12:19:10;;;;;;;2.25;2.00;;;29.10;51.90;;;;;;5111498;28;20024;-70
2021/05/09 12:21:36;;;;;;;4.30;2.42;;;29.40;50.70;;;;;;5111543;28;20023;-71
2021/05/09 12:24:04;;;;;;;6.32;2.10;;;29.40;50.30;;;;;;5110073;28;20027;-71
2021/05/09 12:26:30;;;;;;;5.68;1.95;;;29.50;51.10;;;;;;5111392;28;20023;-71
2021/05/09 12:29:16;;;;;;;6.20;2.05;;;29.80;50.80;;;;;;5111384;28;20020;-70
2021/05/09 12:31:42;;;;;;;5.03;1.92;;;30.00;50.30;;;;;;5111350;28;20473;-71
2021/05/09 12:34:08;;;;;;;3.08;1.90;;;29.90;49.20;;;;;;5111351;28;20023;-71
2021/05/09 12:36:34;;;;;;;2.17;1.67;;;29.70;49.60;;;;;;5111326;28;20028;-70
2021/05/09 12:39:02;;;;;;;4.03;2.08;;;29.90;50.20;;;;;;5111192;28;20087;-71
2021/05/09 12:41:28;;;;;;;3.80;1.92;;;30.10;50.30;;;;;;5111222;28;20020;-70
2021/05/09 12:43:56;;;;;;;2.63;1.80;;;29.70;48.10;;;;;;5110894;28;20046;-70
2021/05/09 12:46:45;;;;;;;2.97;2.05;;;29.70;48.50;;;;;;5111117;28;20016;-70
2021/05/09 12:49:13;;;;;;;3.80;2.08;;;29.60;46.90;;;;;;5109191;28;20393;-71
2021/05/09 12:52:02;;;;;;;3.28;2.30;;;29.50;47.70;;;;;;5110716;28;20111;-70
2021/05/09 12:54:38;;;;;;;2.80;2.20;;;29.30;47.70;;;;;;5110936;28;20073;-70
2021/05/09 13:00:01;;;;;;;5.22;2.53;;;29.40;48.10;;;;;;5091868;28;20352;-71
2021/05/09 13:02:29;;;;;;;3.20;1.95;;;29.10;47.60;;;;;;5091038;28;20023;-71
2021/05/09 13:04:59;;;;;;;6.13;2.25;;;29.00;47.40;;;;;;5091526;28;20031;-71
2021/05/09 13:07:26;;;;;;;3.13;1.98;;;29.20;48.80;;;;;;5091472;28;20439;-70
2021/05/09 13:09:52;;;;;;;3.28;1.90;;;29.60;47.50;;;;;;5091174;28;20016;-70
2021/05/09 13:12:19;;;;;;;2.83;1.70;;;29.80;46.20;;;;;;5091030;28;20386;-71
2021/05/09 13:14:51;;;;;;;5.10;2.22;;;30.00;46.60;;;;;;5091269;28;20024;-70
2021/05/09 13:17:19;;;;;;;4.33;2.00;;;30.00;45.10;;;;;;5090096;28;20527;-71
2021/05/09 13:19:45;;;;;;;2.17;1.70;;;29.90;45.50;;;;;;5091169;28;20454;-71
2021/05/09 13:22:13;;;;;;;2.70;1.90;;;29.50;46.10;;;;;;5091180;28;20100;-71